Santorini, Greece
Current Conditions -  °F | °C
As of 2:20 PM on Saturday 25 Oct 2014 (Local Time) from LGSR Reporting Station
Broken Clouds Broken Clouds  
Wind Chill: 68°   Ceiling: 2500
Heat Index: 68°   Visibility: 6mi
Dew Point: 59°   Wind: 13mph
Humidity: 73%   Direction: 220°SW
Pressure: 29.85"   Gusts: NA
Location:  36.4°N, 25.46°E
Report Text: LGSR 251120Z 22011KT 9999 BKN025 SCT080 20/15 Q1011
Loading
Personal Weather Stations






























Interactive Weather Map
Tropical Storm Tracking
New forecast layout! Learn more

10-Day Weather Forecast

Advertisements
Track Severe Weather on mobile